Time;durP1;ratioP1;P1;durP2;ratioP2;P2;SDS_P1;SDS_P2;PMS_P1;PMS_P2;Temp;Humidity;BMP_temperature;BMP_pressure;BME280_temperature;BME280_humidity;BME280_pressure;Samples;Min_cycle;Max_cycle;Signal;HPM_P1;HPM_P2
2023/04/11 00:00:10;;;;;;;7.45;1.83;;;;;;;;;;5056138;28;20180;-89
2023/04/11 00:02:37;;;;;;;3.70;1.30;;;;;;;;;;5054441;28;20170;-88
2023/04/11 00:05:04;;;;;;;6.78;1.40;;;;;;;;;;5038157;28;20178;-89
2023/04/11 00:07:30;;;;;;;9.63;1.70;;;;;;;;;;5037764;28;20177;-88
2023/04/11 00:09:56;;;;;;;13.23;1.88;;;;;;;;;;5055318;28;20551;-88
2023/04/11 00:12:22;;;;;;;3.35;1.40;;;;;;;;;;5054042;28;20181;-88
2023/04/11 00:14:48;;;;;;;5.15;1.80;;;;;;;;;;5055133;28;20173;-90
2023/04/11 00:17:16;;;;;;;4.95;1.67;;;;;;;;;;5054865;28;20239;-90
2023/04/11 00:19:44;;;;;;;4.00;1.50;;;;;;;;;;5054820;28;20182;-89
2023/04/11 00:22:11;;;;;;;6.07;1.83;;;;;;;;;;5055295;28;20287;-90
2023/04/11 00:24:36;;;;;;;9.00;1.95;;;;;;;;;;5054580;28;20264;-90
2023/04/11 00:27:03;;;;;;;2.30;1.70;;;;;;;;;;5038482;28;20629;-90
2023/04/11 00:29:29;;;;;;;7.28;1.70;;;;;;;;;;5055927;28;20503;-90
2023/04/11 00:31:55;;;;;;;4.55;2.00;;;;;;;;;;5037900;28;20584;-89
2023/04/11 00:34:21;;;;;;;4.53;1.48;;;;;;;;;;5054868;28;20626;-90
2023/04/11 00:36:48;;;;;;;7.40;2.25;;;;;;;;;;5054526;28;20181;-90
2023/04/11 00:39:19;;;;;;;7.03;2.42;;;;;;;;;;5054904;28;20231;-90
2023/04/11 00:41:45;;;;;;;8.32;2.17;;;;;;;;;;5054346;28;20177;-89
2023/04/11 00:44:11;;;;;;;9.80;1.70;;;;;;;;;;5058556;28;20545;-89
2023/04/11 00:46:37;;;;;;;9.33;1.90;;;;;;;;;;5061657;28;20173;-85
2023/04/11 00:49:03;;;;;;;8.15;2.17;;;;;;;;;;5057832;28;20494;-90
2023/04/11 00:51:29;;;;;;;9.50;2.37;;;;;;;;;;5042907;28;20268;-90
2023/04/11 00:53:55;;;;;;;13.87;1.97;;;;;;;;;;5062445;28;20400;-89
2023/04/11 00:56:22;;;;;;;4.77;2.17;;;;;;;;;;5059857;28;20420;-88
2023/04/11 00:58:48;;;;;;;6.20;2.05;;;;;;;;;;5071530;28;20407;-89
2023/04/11 01:01:15;;;;;;;11.88;2.60;;;;;;;;;;5047091;28;20245;-89
2023/04/11 01:03:41;;;;;;;12.80;3.15;;;;;;;;;;5062358;28;20181;-90
2023/04/11 01:06:08;;;;;;;10.93;2.05;;;;;;;;;;5060895;28;20590;-91
2023/04/11 01:08:36;;;;;;;10.65;2.50;;;;;;;;;;5060399;28;20565;-91
2023/04/11 01:11:02;;;;;;;5.70;1.75;;;;;;;;;;5060584;28;20177;-90
2023/04/11 01:13:32;;;;;;;12.52;2.88;;;;;;;;;;5059447;28;20178;-90
2023/04/11 01:15:58;;;;;;;10.35;1.95;;;;;;;;;;5058751;28;20653;-91
2023/04/11 01:18:25;;;;;;;8.90;2.57;;;;;;;;;;5041862;28;20197;-90
2023/04/11 01:20:51;;;;;;;12.27;2.97;;;;;;;;;;5041795;28;20416;-90
2023/04/11 01:23:24;;;;;;;4.93;2.00;;;;;;;;;;5042761;28;20585;-90
2023/04/11 01:25:51;;;;;;;11.65;3.05;;;;;;;;;;5059265;28;20260;-89
2023/04/11 01:28:17;;;;;;;8.77;2.95;;;;;;;;;;5058009;28;20229;-90
2023/04/11 01:30:43;;;;;;;8.85;2.30;;;;;;;;;;5042144;28;20656;-90
2023/04/11 01:33:10;;;;;;;17.07;2.50;;;;;;;;;;5041806;28;20177;-90
2023/04/11 01:35:36;;;;;;;9.88;2.85;;;;;;;;;;5058190;28;20483;-90
2023/04/11 01:38:02;;;;;;;9.48;2.83;;;;;;;;;;5058504;28;20241;-90
2023/04/11 01:40:31;;;;;;;12.80;4.78;;;;;;;;;;5059805;28;20180;-91
2023/04/11 01:42:57;;;;;;;15.68;4.47;;;;;;;;;;5057284;28;20177;-90
2023/04/11 01:45:24;;;;;;;11.13;2.33;;;;;;;;;;5059097;28;20170;-90
2023/04/11 01:47:51;;;;;;;16.70;2.70;;;;;;;;;;5057311;28;20185;-89
2023/04/11 01:50:17;;;;;;;14.45;3.92;;;;;;;;;;5057532;28;20243;-90
2023/04/11 01:52:43;;;;;;;13.50;3.10;;;;;;;;;;5059641;28;20249;-90
2023/04/11 01:55:09;;;;;;;14.63;3.10;;;;;;;;;;5058517;28;20466;-91
2023/04/11 01:57:35;;;;;;;10.02;2.40;;;;;;;;;;5040712;28;20408;-90
2023/04/11 02:00:02;;;;;;;22.23;3.35;;;;;;;;;;5058023;28;20198;-90
2023/04/11 02:02:28;;;;;;;11.52;4.05;;;;;;;;;;5056065;28;20212;-90
2023/04/11 02:04:54;;;;;;;18.85;3.53;;;;;;;;;;5040279;28;20177;-90
2023/04/11 02:07:20;;;;;;;17.80;2.80;;;;;;;;;;5040423;28;20190;-89
2023/04/11 02:09:46;;;;;;;12.57;4.10;;;;;;;;;;5057220;28;20293;-89
2023/04/11 02:12:12;;;;;;;14.32;3.25;;;;;;;;;;5056997;28;20230;-90
2023/04/11 02:14:42;;;;;;;14.32;4.05;;;;;;;;;;5057128;28;20713;-90
2023/04/11 02:17:09;;;;;;;13.90;3.33;;;;;;;;;;5056921;28;20170;-90
2023/04/11 02:19:36;;;;;;;10.07;3.28;;;;;;;;;;5056467;28;20174;-89
2023/04/11 02:22:02;;;;;;;15.93;3.00;;;;;;;;;;5057890;28;21018;-89
2023/04/11 02:24:28;;;;;;;11.82;2.90;;;;;;;;;;5057529;28;20178;-89
2023/04/11 02:26:55;;;;;;;14.93;3.83;;;;;;;;;;5057467;28;20166;-90
2023/04/11 02:29:21;;;;;;;9.98;3.50;;;;;;;;;;5056776;28;20209;-89
2023/04/11 02:31:50;;;;;;;17.27;2.63;;;;;;;;;;5056635;28;20193;-88
2023/04/11 02:34:16;;;;;;;16.00;3.13;;;;;;;;;;5055949;28;20174;-89
2023/04/11 02:36:42;;;;;;;16.90;4.15;;;;;;;;;;5057959;28;20189;-89
2023/04/11 02:39:08;;;;;;;18.20;3.35;;;;;;;;;;5055820;28;20193;-89
2023/04/11 02:41:38;;;;;;;19.55;3.70;;;;;;;;;;5038965;28;20186;-90
2023/04/11 02:44:04;;;;;;;7.68;2.90;;;;;;;;;;5056889;28;20174;-89
2023/04/11 02:46:30;;;;;;;16.90;3.38;;;;;;;;;;5039786;28;20232;-88
2023/04/11 02:48:56;;;;;;;18.98;3.33;;;;;;;;;;5056279;28;20241;-88
2023/04/11 02:51:22;;;;;;;21.10;4.20;;;;;;;;;;5057237;28;20185;-89
2023/04/11 02:53:48;;;;;;;17.45;4.22;;;;;;;;;;5057075;28;20161;-90
2023/04/11 02:56:17;;;;;;;19.10;3.85;;;;;;;;;;5057400;28;20170;-90
2023/04/11 02:58:43;;;;;;;10.13;3.35;;;;;;;;;;5056749;28;20182;-90
2023/04/11 03:01:10;;;;;;;13.05;3.65;;;;;;;;;;5055863;28;20170;-89
2023/04/11 03:03:37;;;;;;;16.50;3.45;;;;;;;;;;5039543;28;20188;-89
2023/04/11 03:06:03;;;;;;;13.60;2.45;;;;;;;;;;5057547;28;20174;-90
2023/04/11 03:08:29;;;;;;;16.52;3.65;;;;;;;;;;5056353;28;20277;-90
2023/04/11 03:10:55;;;;;;;16.88;3.75;;;;;;;;;;5057325;28;20187;-90
2023/04/11 03:13:21;;;;;;;14.57;3.15;;;;;;;;;;5056375;28;20181;-90
2023/04/11 03:15:47;;;;;;;10.82;3.22;;;;;;;;;;5057035;28;20174;-90
2023/04/11 03:18:13;;;;;;;15.18;3.47;;;;;;;;;;5038697;28;20185;-89
2023/04/11 03:20:39;;;;;;;24.88;4.40;;;;;;;;;;5055775;28;20276;-89
2023/04/11 03:23:05;;;;;;;13.23;3.38;;;;;;;;;;5057376;28;20269;-90
2023/04/11 03:25:31;;;;;;;11.35;3.20;;;;;;;;;;5056937;28;20184;-89
2023/04/11 03:27:57;;;;;;;17.55;4.47;;;;;;;;;;5055275;28;20181;-89
2023/04/11 03:30:23;;;;;;;21.50;3.60;;;;;;;;;;5056705;28;20209;-90
2023/04/11 03:32:49;;;;;;;16.45;3.72;;;;;;;;;;5055523;28;20648;-90
2023/04/11 03:35:17;;;;;;;15.27;3.85;;;;;;;;;;5055854;28;20184;-89
2023/04/11 03:37:43;;;;;;;16.00;3.17;;;;;;;;;;5055425;28;20176;-90
2023/04/11 03:40:09;;;;;;;19.02;5.15;;;;;;;;;;5056470;28;20174;-89
2023/04/11 03:42:35;;;;;;;15.02;3.15;;;;;;;;;;5055267;28;20180;-90
2023/04/11 03:45:01;;;;;;;11.40;3.63;;;;;;;;;;5055178;28;20186;-89
2023/04/11 03:47:27;;;;;;;10.30;2.83;;;;;;;;;;5038769;28;20185;-89
2023/04/11 03:49:53;;;;;;;14.02;4.22;;;;;;;;;;5054268;28;20233;-88
2023/04/11 03:52:19;;;;;;;15.90;3.85;;;;;;;;;;5059167;28;20180;-88
2023/04/11 03:54:45;;;;;;;17.65;4.25;;;;;;;;;;5057167;28;20208;-91
2023/04/11 03:57:11;;;;;;;16.37;3.30;;;;;;;;;;5047502;28;20178;-90
2023/04/11 03:59:37;;;;;;;16.57;4.20;;;;;;;;;;5043329;28;20459;-90
2023/04/11 04:02:03;;;;;;;28.05;4.32;;;;;;;;;;5061487;28;20412;-90
2023/04/11 04:04:32;;;;;;;17.52;3.60;;;;;;;;;;5059394;28;20177;-91
2023/04/11 04:06:58;;;;;;;15.68;3.42;;;;;;;;;;5054952;28;20173;-90
2023/04/11 04:09:24;;;;;;;21.07;4.40;;;;;;;;;;5056740;28;20699;-90
2023/04/11 04:11:50;;;;;;;16.27;3.80;;;;;;;;;;5056051;28;20840;-88
2023/04/11 04:14:16;;;;;;;12.68;3.55;;;;;;;;;;5054631;28;20174;-90
2023/04/11 04:16:42;;;;;;;8.97;3.10;;;;;;;;;;5055954;28;20563;-90
2023/04/11 04:19:08;;;;;;;19.03;5.20;;;;;;;;;;5054048;28;20541;-89
2023/04/11 04:21:36;;;;;;;17.17;3.40;;;;;;;;;;5055229;28;20436;-89
2023/04/11 04:24:04;;;;;;;16.88;3.67;;;;;;;;;;5056414;28;20504;-89
2023/04/11 04:26:30;;;;;;;9.43;3.58;;;;;;;;;;5039873;28;20178;-90
2023/04/11 04:29:03;;;;;;;19.05;4.35;;;;;;;;;;5055748;28;20197;-90
2023/04/11 04:31:32;;;;;;;11.05;4.30;;;;;;;;;;5055486;28;20158;-91
2023/04/11 04:34:01;;;;;;;9.88;2.35;;;;;;;;;;5054679;28;20692;-91
2023/04/11 04:36:28;;;;;;;11.27;2.78;;;;;;;;;;5037950;28;20276;-91
2023/04/11 04:39:00;;;;;;;13.50;3.10;;;;;;;;;;5053858;28;20545;-89
2023/04/11 04:41:35;;;;;;;26.17;4.07;;;;;;;;;;5053951;28;20622;-90
2023/04/11 04:44:03;;;;;;;21.83;5.13;;;;;;;;;;5056343;28;20700;-88
2023/04/11 04:46:35;;;;;;;9.35;2.95;;;;;;;;;;5037942;28;20268;-89
2023/04/11 04:49:01;;;;;;;19.48;3.40;;;;;;;;;;5054293;28;20286;-91
2023/04/11 04:51:29;;;;;;;13.43;3.90;;;;;;;;;;5053468;28;20181;-90
2023/04/11 04:53:56;;;;;;;13.95;2.97;;;;;;;;;;5037316;28;20470;-90
2023/04/11 04:56:22;;;;;;;13.82;2.95;;;;;;;;;;5053924;28;20707;-88
2023/04/11 04:58:48;;;;;;;11.18;2.90;;;;;;;;;;5054044;28;20231;-89
2023/04/11 05:01:15;;;;;;;15.43;5.43;;;;;;;;;;5053487;28;20169;-88
2023/04/11 05:03:43;;;;;;;11.55;3.38;;;;;;;;;;5053565;28;20656;-91
2023/04/11 05:06:09;;;;;;;18.85;3.60;;;;;;;;;;5054931;28;20170;-89
2023/04/11 05:08:35;;;;;;;19.85;3.67;;;;;;;;;;5053900;28;20310;-89
2023/04/11 05:11:01;;;;;;;14.80;4.00;;;;;;;;;;5054292;28;20311;-89
2023/04/11 05:13:27;;;;;;;11.35;3.55;;;;;;;;;;5063080;28;20419;-91
2023/04/11 05:15:53;;;;;;;20.13;3.77;;;;;;;;;;5067108;28;20184;-87
2023/04/11 05:18:19;;;;;;;10.23;2.87;;;;;;;;;;5042057;28;20424;-89
2023/04/11 05:20:45;;;;;;;15.98;2.97;;;;;;;;;;5062578;28;20892;-89
2023/04/11 05:23:11;;;;;;;10.43;2.73;;;;;;;;;;5055695;28;20200;-88
2023/04/11 05:25:37;;;;;;;12.37;3.33;;;;;;;;;;5062000;28;20411;-88
2023/04/11 05:28:03;;;;;;;16.10;4.13;;;;;;;;;;5069734;28;20418;-88
2023/04/11 05:30:29;;;;;;;10.13;4.10;;;;;;;;;;5057055;28;20434;-90
2023/04/11 05:32:55;;;;;;;18.03;4.07;;;;;;;;;;5056213;28;20457;-87
2023/04/11 05:35:21;;;;;;;7.63;3.23;;;;;;;;;;5056050;28;20778;-87
2023/04/11 05:37:47;;;;;;;18.93;4.63;;;;;;;;;;5057334;28;20415;-87
2023/04/11 05:40:13;;;;;;;19.42;4.43;;;;;;;;;;5076436;28;20502;-88
2023/04/11 05:42:39;;;;;;;6.87;2.93;;;;;;;;;;5060550;28;20201;-88
2023/04/11 05:45:05;;;;;;;18.50;4.10;;;;;;;;;;5076635;28;20413;-87
2023/04/11 05:47:31;;;;;;;14.60;4.43;;;;;;;;;;5077465;28;20226;-87
2023/04/11 05:49:57;;;;;;;15.33;3.60;;;;;;;;;;5077117;28;20236;-86
2023/04/11 05:52:23;;;;;;;9.13;3.03;;;;;;;;;;5060061;28;20407;-89
2023/04/11 05:54:49;;;;;;;8.17;3.00;;;;;;;;;;5076524;28;20419;-88
2023/04/11 05:57:16;;;;;;;18.27;3.75;;;;;;;;;;5076650;28;20433;-89
2023/04/11 05:59:42;;;;;;;10.88;3.25;;;;;;;;;;5059685;28;20178;-88
2023/04/11 06:02:08;;;;;;;15.68;3.90;;;;;;;;;;5076214;28;20264;-88
2023/04/11 06:04:34;;;;;;;9.87;2.90;;;;;;;;;;5077758;28;20169;-87
2023/04/11 06:07:02;;;;;;;16.48;4.45;;;;;;;;;;5075586;28;20472;-87
2023/04/11 06:09:29;;;;;;;23.13;4.38;;;;;;;;;;5076284;28;20197;-89
2023/04/11 06:11:56;;;;;;;13.32;3.58;;;;;;;;;;5076526;28;20179;-87
2023/04/11 06:14:22;;;;;;;9.93;4.10;;;;;;;;;;5059445;28;20773;-88
2023/04/11 06:16:48;;;;;;;15.85;3.20;;;;;;;;;;5077482;28;20544;-88
2023/04/11 06:19:14;;;;;;;26.40;4.50;;;;;;;;;;5076067;28;20173;-88
2023/04/11 06:21:40;;;;;;;20.88;3.45;;;;;;;;;;5077475;28;20173;-89
2023/04/11 06:24:10;;;;;;;9.45;3.42;;;;;;;;;;5076511;28;20251;-88
2023/04/11 06:26:36;;;;;;;11.73;3.63;;;;;;;;;;5076463;28;20268;-89
2023/04/11 06:29:04;;;;;;;12.65;3.25;;;;;;;;;;5075525;28;20209;-89
2023/04/11 06:31:30;;;;;;;14.55;3.42;;;;;;;;;;5077909;28;20246;-90
2023/04/11 06:33:56;;;;;;;9.10;2.87;;;;;;;;;;5076184;28;20513;-91
2023/04/11 06:36:22;;;;;;;10.03;3.13;;;;;;;;;;5076608;28;20400;-88
2023/04/11 06:38:48;;;;;;;12.43;3.40;;;;;;;;;;5059517;28;20419;-89
2023/04/11 06:41:14;;;;;;;13.23;3.00;;;;;;;;;;5077853;28;20902;-88
2023/04/11 06:43:40;;;;;;;11.00;3.87;;;;;;;;;;5078515;28;20417;-89
2023/04/11 06:46:07;;;;;;;5.80;3.10;;;;;;;;;;5061915;28;20431;-88
2023/04/11 06:48:33;;;;;;;11.75;3.50;;;;;;;;;;5075711;28;20502;-88
2023/04/11 06:50:59;;;;;;;8.15;2.90;;;;;;;;;;5076446;28;20176;-87
2023/04/11 06:53:25;;;;;;;13.03;4.03;;;;;;;;;;5059524;28;20181;-88
2023/04/11 06:55:51;;;;;;;10.93;3.15;;;;;;;;;;5076546;28;20422;-89
2023/04/11 06:58:17;;;;;;;11.25;3.40;;;;;;;;;;5075938;28;20229;-90
2023/04/11 07:00:43;;;;;;;13.98;3.60;;;;;;;;;;5076411;28;20181;-88
2023/04/11 07:03:09;;;;;;;10.77;4.00;;;;;;;;;;5084153;28;20176;-88
2023/04/11 07:05:35;;;;;;;13.10;3.45;;;;;;;;;;5076151;28;20465;-81
2023/04/11 07:08:01;;;;;;;11.82;3.92;;;;;;;;;;5074342;28;20180;-82
2023/04/11 07:10:27;;;;;;;16.85;3.03;;;;;;;;;;5074514;28;20220;-82
2023/04/11 07:12:54;;;;;;;12.17;4.23;;;;;;;;;;5057541;28;20193;-82
2023/04/11 07:15:22;;;;;;;18.65;4.00;;;;;;;;;;5057551;28;20427;-82
2023/04/11 07:17:48;;;;;;;17.35;3.58;;;;;;;;;;5075268;28;20310;-84
2023/04/11 07:20:15;;;;;;;8.73;3.78;;;;;;;;;;5058514;28;20200;-83
2023/04/11 07:22:42;;;;;;;12.68;3.65;;;;;;;;;;5075825;28;20238;-84
2023/04/11 07:25:09;;;;;;;9.77;2.90;;;;;;;;;;5059012;28;20772;-84
2023/04/11 07:27:35;;;;;;;11.50;3.28;;;;;;;;;;5058958;28;20173;-84
2023/04/11 07:30:01;;;;;;;10.23;3.38;;;;;;;;;;5075139;28;20200;-86
2023/04/11 07:32:27;;;;;;;10.73;3.60;;;;;;;;;;5059241;28;20275;-83
2023/04/11 07:34:53;;;;;;;6.90;3.07;;;;;;;;;;5075702;28;20265;-83
2023/04/11 07:37:19;;;;;;;6.38;2.95;;;;;;;;;;5075022;28;20813;-84
2023/04/11 07:39:45;;;;;;;10.93;3.90;;;;;;;;;;5075343;28;20181;-84
2023/04/11 07:42:11;;;;;;;11.60;2.73;;;;;;;;;;5074853;28;20821;-84
2023/04/11 07:44:37;;;;;;;9.40;2.83;;;;;;;;;;5075142;28;20403;-83
2023/04/11 07:47:03;;;;;;;6.40;2.80;;;;;;;;;;5075717;28;20204;-86
2023/04/11 07:49:29;;;;;;;10.60;2.83;;;;;;;;;;5076323;28;20497;-85
2023/04/11 07:51:55;;;;;;;8.32;2.92;;;;;;;;;;5075121;28;20739;-84
2023/04/11 07:54:24;;;;;;;6.67;2.90;;;;;;;;;;5058007;28;20253;-83
2023/04/11 07:56:50;;;;;;;12.70;2.75;;;;;;;;;;5058303;28;20414;-86
2023/04/11 07:59:16;;;;;;;10.35;2.80;;;;;;;;;;5074768;28;20283;-84
2023/04/11 08:01:42;;;;;;;16.90;2.72;;;;;;;;;;5073633;28;20193;-85
2023/04/11 08:04:08;;;;;;;7.90;2.35;;;;;;;;;;5057948;28;20183;-84
2023/04/11 08:06:34;;;;;;;7.03;2.65;;;;;;;;;;5058150;28;20284;-86
2023/04/11 08:09:00;;;;;;;9.77;2.58;;;;;;;;;;5075954;28;20207;-84
2023/04/11 08:11:26;;;;;;;10.65;2.45;;;;;;;;;;5073824;28;20185;-85
2023/04/11 08:13:52;;;;;;;6.75;2.13;;;;;;;;;;5074873;28;20175;-84
2023/04/11 08:16:18;;;;;;;14.80;3.37;;;;;;;;;;5057481;28;20275;-82
2023/04/11 08:18:46;;;;;;;5.38;2.03;;;;;;;;;;5074087;28;20592;-82
2023/04/11 08:21:13;;;;;;;9.60;1.92;;;;;;;;;;5075265;28;20192;-83
2023/04/11 08:23:40;;;;;;;11.32;3.05;;;;;;;;;;5075383;28;20165;-83
2023/04/11 08:26:07;;;;;;;9.43;2.63;;;;;;;;;;5074438;28;20666;-84
2023/04/11 08:28:33;;;;;;;7.85;2.25;;;;;;;;;;5074471;28;20466;-82
2023/04/11 08:31:01;;;;;;;3.80;1.70;;;;;;;;;;5064322;28;20181;-84
2023/04/11 08:33:27;;;;;;;5.40;2.13;;;;;;;;;;5054199;28;20432;-82
2023/04/11 08:35:53;;;;;;;14.87;2.97;;;;;;;;;;5054450;28;20841;-84
2023/04/11 08:38:20;;;;;;;10.83;1.87;;;;;;;;;;5037645;28;20424;-84
2023/04/11 08:40:46;;;;;;;5.30;2.10;;;;;;;;;;5040928;28;20424;-84
2023/04/11 08:43:12;;;;;;;6.40;1.90;;;;;;;;;;5063302;28;20427;-88
2023/04/11 08:45:41;;;;;;;11.77;2.53;;;;;;;;;;5073246;28;20902;-86
2023/04/11 08:48:10;;;;;;;9.20;2.23;;;;;;;;;;5065559;28;20410;-87
2023/04/11 08:50:37;;;;;;;7.03;1.93;;;;;;;;;;5058584;28;20506;-87
2023/04/11 08:53:04;;;;;;;12.47;2.60;;;;;;;;;;5074558;28;20399;-87
2023/04/11 08:55:30;;;;;;;6.77;1.90;;;;;;;;;;5055392;28;20423;-87
2023/04/11 08:57:58;;;;;;;11.03;2.23;;;;;;;;;;5036745;28;20481;-87
2023/04/11 09:00:25;;;;;;;11.70;2.23;;;;;;;;;;5023906;28;20407;-86
2023/04/11 09:02:55;;;;;;;6.50;2.10;;;;;;;;;;5056635;28;20414;-86
2023/04/11 09:05:28;;;;;;;6.27;1.40;;;;;;;;;;5057009;28;20942;-86
2023/04/11 09:07:55;;;;;;;5.10;1.30;;;;;;;;;;5074836;28;20403;-83
2023/04/11 09:10:21;;;;;;;3.03;1.00;;;;;;;;;;5073523;28;20455;-83
2023/04/11 09:12:47;;;;;;;7.30;2.00;;;;;;;;;;5059762;28;20411;-84
2023/04/11 09:15:23;;;;;;;6.97;1.80;;;;;;;;;;5043919;28;20397;-86
2023/04/11 09:17:49;;;;;;;11.63;2.27;;;;;;;;;;5060354;28;20943;-85
2023/04/11 09:20:28;;;;;;;6.70;1.87;;;;;;;;;;5059830;28;20452;-83
2023/04/11 09:22:54;;;;;;;6.57;2.00;;;;;;;;;;5059537;28;20768;-81
2023/04/11 09:25:21;;;;;;;14.20;2.57;;;;;;;;;;5077954;28;20421;-83
2023/04/11 09:27:47;;;;;;;8.17;2.47;;;;;;;;;;5078136;28;20395;-82
2023/04/11 09:30:25;;;;;;;5.70;1.83;;;;;;;;;;5059634;28;20462;-79
2023/04/11 09:32:54;;;;;;;5.90;1.83;;;;;;;;;;5059705;28;20422;-80
2023/04/11 09:35:22;;;;;;;4.13;1.73;;;;;;;;;;5077571;28;20713;-78
2023/04/11 09:37:59;;;;;;;5.87;1.70;;;;;;;;;;5078276;28;20407;-79
2023/04/11 09:40:25;;;;;;;14.77;2.47;;;;;;;;;;5078157;28;20403;-85
2023/04/11 09:42:59;;;;;;;6.30;2.07;;;;;;;;;;5078000;28;20403;-82
2023/04/11 09:45:25;;;;;;;5.90;2.40;;;;;;;;;;5059266;28;20465;-84
2023/04/11 09:47:52;;;;;;;4.90;2.03;;;;;;;;;;5043433;28;20422;-84
2023/04/11 09:50:19;;;;;;;7.73;1.80;;;;;;;;;;5058637;28;20461;-85
2023/04/11 09:52:45;;;;;;;4.30;1.90;;;;;;;;;;5059968;28;20419;-85
2023/04/11 09:55:16;;;;;;;5.70;1.83;;;;;;;;;;5077823;28;20378;-85
2023/04/11 09:57:45;;;;;;;15.47;3.33;;;;;;;;;;5077913;28;20385;-85
2023/04/11 10:00:18;;;;;;;7.53;2.73;;;;;;;;;;5077327;28;20416;-84
2023/04/11 10:02:45;;;;;;;4.63;1.97;;;;;;;;;;5077509;28;20381;-83
2023/04/11 10:05:12;;;;;;;7.10;2.10;;;;;;;;;;5059243;28;20432;-84
2023/04/11 10:07:45;;;;;;;6.83;2.47;;;;;;;;;;5059810;28;20403;-82
2023/04/11 10:10:15;;;;;;;3.67;1.67;;;;;;;;;;5059486;28;21003;-83
2023/04/11 10:12:41;;;;;;;6.83;2.30;;;;;;;;;;5076737;28;20424;-84
2023/04/11 10:15:07;;;;;;;5.23;1.63;;;;;;;;;;5077852;28;20862;-85
2023/04/11 10:17:33;;;;;;;11.40;2.43;;;;;;;;;;5076666;28;20914;-84
2023/04/11 10:19:59;;;;;;;9.10;2.90;;;;;;;;;;5077562;28;20900;-83
2023/04/11 10:22:45;;;;;;;6.80;2.63;;;;;;;;;;5057165;28;20396;-83
2023/04/11 10:25:18;;;;;;;5.97;1.80;;;;;;;;;;5054252;28;20900;-89
2023/04/11 10:27:59;;;;;;;7.50;2.00;;;;;;;;;;5077883;28;20403;-84
2023/04/11 10:30:40;;;;;;;5.27;1.77;;;;;;;;;;5044769;28;20422;-81
2023/04/11 10:33:16;;;;;;;4.47;1.70;;;;;;;;;;5039514;28;20477;-85
2023/04/11 10:36:00;;;;;;;8.03;2.00;;;;;;;;;;5047044;28;20398;-85
2023/04/11 10:38:47;;;;;;;6.33;2.27;;;;;;;;;;5057192;28;20970;-85
2023/04/11 10:41:31;;;;;;;4.67;1.73;;;;;;;;;;5040492;28;20495;-86
2023/04/11 10:44:19;;;;;;;5.67;2.00;;;;;;;;;;5057999;28;20828;-85
2023/04/11 10:46:49;;;;;;;4.57;1.37;;;;;;;;;;5051867;28;20449;-86
2023/04/11 10:49:32;;;;;;;7.10;2.90;;;;;;;;;;5055634;28;20510;-85
2023/04/11 10:52:17;;;;;;;6.57;2.57;;;;;;;;;;5037776;28;20425;-85
2023/04/11 10:54:45;;;;;;;7.97;1.90;;;;;;;;;;5055316;28;20901;-86
2023/04/11 10:57:11;;;;;;;4.03;1.70;;;;;;;;;;5061799;28;20400;-85
2023/04/11 10:59:37;;;;;;;8.70;2.53;;;;;;;;;;5066728;28;20436;-85
2023/04/11 11:02:03;;;;;;;6.03;1.33;;;;;;;;;;5056124;28;20863;-87
2023/04/11 11:04:35;;;;;;;8.83;2.07;;;;;;;;;;5037513;28;20408;-87
2023/04/11 11:07:03;;;;;;;2.33;1.37;;;;;;;;;;5054018;28;20417;-86
2023/04/11 11:09:29;;;;;;;4.53;1.87;;;;;;;;;;5041498;28;20467;-86
2023/04/11 11:12:06;;;;;;;5.43;1.90;;;;;;;;;;5053402;28;20980;-86
2023/04/11 11:14:32;;;;;;;6.50;1.93;;;;;;;;;;5067847;28;20411;-88
2023/04/11 11:16:58;;;;;;;11.87;2.30;;;;;;;;;;5059761;28;20494;-86
2023/04/11 11:19:24;;;;;;;6.23;1.93;;;;;;;;;;5077419;28;20398;-84
2023/04/11 11:21:50;;;;;;;6.80;2.23;;;;;;;;;;5041632;28;20404;-87
2023/04/11 11:24:23;;;;;;;4.40;1.37;;;;;;;;;;5076081;28;20423;-87
2023/04/11 11:26:49;;;;;;;3.70;1.40;;;;;;;;;;5055684;28;20378;-86
2023/04/11 11:29:16;;;;;;;73.77;10.43;;;;;;;;;;5079800;28;20473;-87
2023/04/11 11:31:44;;;;;;;11.80;1.87;;;;;;;;;;5058788;28;20457;-86
2023/04/11 11:34:10;;;;;;;5.80;1.10;;;;;;;;;;5058239;28;20398;-84
2023/04/11 11:36:40;;;;;;;6.70;1.67;;;;;;;;;;5056049;28;20415;-86
2023/04/11 11:39:06;;;;;;;3.43;1.70;;;;;;;;;;5058089;28;20422;-86
2023/04/11 11:41:35;;;;;;;2.93;1.33;;;;;;;;;;5074253;28;20423;-85
2023/04/11 11:44:02;;;;;;;7.10;1.87;;;;;;;;;;5046985;28;20398;-86
2023/04/11 11:46:30;;;;;;;4.00;2.10;;;;;;;;;;5022294;28;20427;-85
2023/04/11 11:48:57;;;;;;;3.50;1.10;;;;;;;;;;5054805;28;20513;-84
2023/04/11 11:51:23;;;;;;;6.90;1.50;;;;;;;;;;5054870;28;20393;-85
2023/04/11 11:54:07;;;;;;;5.00;1.40;;;;;;;;;;5021073;28;20457;-83
2023/04/11 11:56:33;;;;;;;3.50;1.10;;;;;;;;;;5054903;28;20462;-85
2023/04/11 11:58:59;;;;;;;4.93;1.57;;;;;;;;;;5054957;28;20888;-82
2023/04/11 12:01:25;;;;;;;4.33;1.37;;;;;;;;;;5037032;28;20810;-83
2023/04/11 12:03:52;;;;;;;3.87;1.47;;;;;;;;;;5037758;28;20889;-80
2023/04/11 12:06:18;;;;;;;4.33;1.90;;;;;;;;;;5037142;28;20962;-87
2023/04/11 12:08:50;;;;;;;5.20;2.03;;;;;;;;;;5037481;28;20463;-82
2023/04/11 12:11:17;;;;;;;6.13;1.90;;;;;;;;;;5054950;28;20410;-84
2023/04/11 12:13:46;;;;;;;6.13;1.67;;;;;;;;;;5051158;28;20411;-84
2023/04/11 12:16:12;;;;;;;3.83;1.80;;;;;;;;;;5057847;28;20410;-82
2023/04/11 12:18:40;;;;;;;5.40;1.50;;;;;;;;;;5056910;28;20781;-84
2023/04/11 12:21:06;;;;;;;8.83;2.20;;;;;;;;;;5074848;28;20796;-84
2023/04/11 12:23:32;;;;;;;7.07;2.27;;;;;;;;;;5074457;28;20449;-85
2023/04/11 12:25:59;;;;;;;3.33;1.40;;;;;;;;;;5056307;28;20408;-84
2023/04/11 12:28:25;;;;;;;4.80;1.70;;;;;;;;;;5057251;28;20423;-85
2023/04/11 12:30:51;;;;;;;5.90;1.77;;;;;;;;;;5057065;28;20488;-84
2023/04/11 12:33:17;;;;;;;6.00;2.03;;;;;;;;;;5057128;28;20407;-82
2023/04/11 12:35:43;;;;;;;7.10;2.07;;;;;;;;;;5056661;28;20419;-86
2023/04/11 12:38:09;;;;;;;5.63;1.90;;;;;;;;;;5075313;28;20408;-86
2023/04/11 12:40:35;;;;;;;4.90;1.37;;;;;;;;;;5056968;28;20415;-82
2023/04/11 12:43:01;;;;;;;5.10;1.13;;;;;;;;;;5039889;28;20430;-86
2023/04/11 12:45:27;;;;;;;7.20;1.50;;;;;;;;;;5074688;28;20411;-87
2023/04/11 12:47:53;;;;;;;3.43;1.20;;;;;;;;;;5060335;28;20415;-85
2023/04/11 12:50:21;;;;;;;5.93;1.47;;;;;;;;;;5060392;28;20520;-86
2023/04/11 12:52:48;;;;;;;4.03;1.50;;;;;;;;;;5061087;28;20422;-86
2023/04/11 12:55:14;;;;;;;7.77;1.87;;;;;;;;;;5043849;28;20494;-85
2023/04/11 12:57:41;;;;;;;9.70;1.77;;;;;;;;;;5059611;28;20429;-86
2023/04/11 13:00:08;;;;;;;6.20;1.83;;;;;;;;;;5060384;28;20411;-85
2023/04/11 13:02:34;;;;;;;4.20;1.40;;;;;;;;;;5078445;28;20403;-86
2023/04/11 13:05:05;;;;;;;5.20;1.57;;;;;;;;;;5081521;28;20370;-86
2023/04/11 13:07:31;;;;;;;3.10;1.33;;;;;;;;;;5060118;28;20422;-84
2023/04/11 13:09:57;;;;;;;4.53;1.37;;;;;;;;;;5078183;28;20498;-83
2023/04/11 13:12:23;;;;;;;6.63;1.77;;;;;;;;;;5054790;28;20419;-87
2023/04/11 13:14:49;;;;;;;3.30;1.80;;;;;;;;;;5059439;28;20393;-84
2023/04/11 13:17:15;;;;;;;8.73;1.90;;;;;;;;;;5042350;28;20906;-84
2023/04/11 13:19:41;;;;;;;3.40;1.20;;;;;;;;;;5059749;28;20425;-85
2023/04/11 13:22:07;;;;;;;4.90;1.50;;;;;;;;;;5059461;28;20389;-81
2023/04/11 13:24:33;;;;;;;25.50;4.17;;;;;;;;;;5062988;28;20410;-84
2023/04/11 13:26:59;;;;;;;25.23;3.73;;;;;;;;;;5060586;28;20403;-79
2023/04/11 13:29:25;;;;;;;21.87;3.07;;;;;;;;;;5043367;28;20974;-82
2023/04/11 13:31:52;;;;;;;4.53;1.43;;;;;;;;;;5044216;28;20455;-82
2023/04/11 13:34:18;;;;;;;5.55;1.25;;;;;;;;;;5061338;28;20419;-84
2023/04/11 13:36:44;;;;;;;1.77;1.20;;;;;;;;;;5042429;28;20247;-82
2023/04/11 13:39:12;;;;;;;4.60;1.23;;;;;;;;;;5059082;28;20429;-83
2023/04/11 13:41:38;;;;;;;2.70;1.20;;;;;;;;;;5060616;28;20407;-85
2023/04/11 13:44:04;;;;;;;3.03;0.80;;;;;;;;;;5042687;28;20426;-85
2023/04/11 13:46:30;;;;;;;4.90;1.50;;;;;;;;;;5059750;28;20414;-86
2023/04/11 13:48:56;;;;;;;4.87;2.60;;;;;;;;;;5060054;28;20494;-84
2023/04/11 13:51:22;;;;;;;5.93;1.73;;;;;;;;;;5042799;28;20415;-86
2023/04/11 13:53:48;;;;;;;4.40;1.43;;;;;;;;;;5077115;28;20521;-87
2023/04/11 13:56:14;;;;;;;7.23;1.37;;;;;;;;;;5042101;28;20418;-86
2023/04/11 13:58:40;;;;;;;3.50;2.00;;;;;;;;;;5057833;28;20411;-87
2023/04/11 14:01:07;;;;;;;4.13;1.13;;;;;;;;;;5077631;28;20403;-86
2023/04/11 14:03:33;;;;;;;4.80;1.60;;;;;;;;;;5060981;28;20426;-87
2023/04/11 14:06:02;;;;;;;3.00;1.30;;;;;;;;;;5060112;28;20881;-86
2023/04/11 14:08:28;;;;;;;8.30;1.70;;;;;;;;;;5058485;28;20484;-87
2023/04/11 14:10:54;;;;;;;3.37;1.20;;;;;;;;;;5077800;28;20394;-87
2023/04/11 14:13:20;;;;;;;3.93;1.30;;;;;;;;;;5071903;28;20881;-86
2023/04/11 14:15:47;;;;;;;4.37;1.10;;;;;;;;;;5060397;28;20831;-88
2023/04/11 14:18:13;;;;;;;2.30;1.40;;;;;;;;;;5043042;28;20408;-87
2023/04/11 14:20:39;;;;;;;6.33;1.67;;;;;;;;;;5058840;28;20419;-86
2023/04/11 14:23:06;;;;;;;3.40;1.40;;;;;;;;;;5076460;28;20499;-87
2023/04/11 14:25:32;;;;;;;4.63;1.80;;;;;;;;;;5054583;28;20943;-86
2023/04/11 14:27:58;;;;;;;8.70;3.33;;;;;;;;;;5056132;28;20401;-86
2023/04/11 14:30:24;;;;;;;4.63;1.70;;;;;;;;;;5076021;28;20461;-86
2023/04/11 14:32:50;;;;;;;5.20;1.70;;;;;;;;;;5058123;28;20393;-86
2023/04/11 14:35:16;;;;;;;11.67;1.70;;;;;;;;;;5041542;28;20801;-82